createdAt,value
2023-02-11T00:01:30.746Z,120.20
2023-02-11T00:03:59.580Z,121.40
2023-02-11T00:06:29.605Z,110.80
2023-02-11T00:08:58.051Z,103.50
2023-02-11T00:11:27.599Z,99.10
2023-02-11T00:13:56.285Z,118.70
2023-02-11T00:16:24.581Z,108.80
2023-02-11T00:18:52.612Z,106.90
2023-02-11T00:21:23.343Z,97.70
2023-02-11T00:23:51.731Z,110.70
2023-02-11T00:26:22.208Z,117.90
2023-02-11T00:28:52.003Z,110.70
2023-02-11T00:31:22.190Z,142.60
2023-02-11T00:33:50.305Z,127.20
2023-02-11T00:36:21.738Z,124.50
2023-02-11T00:38:50.908Z,124.70
2023-02-11T00:41:19.603Z,100.00
2023-02-11T00:43:47.663Z,90.00
2023-02-11T00:46:16.679Z,88.00
2023-02-11T00:48:44.679Z,91.00
2023-02-11T00:51:13.009Z,93.70
2023-02-11T00:53:41.055Z,101.20
2023-02-11T00:56:10.126Z,111.50
2023-02-11T00:58:38.338Z,91.30
2023-02-11T01:01:06.724Z,84.40
2023-02-11T01:03:35.219Z,72.00
2023-02-11T01:06:03.298Z,78.00
2023-02-11T01:08:31.603Z,69.10
2023-02-11T01:11:06.924Z,83.30
2023-02-11T01:13:36.726Z,81.40
2023-02-11T01:16:07.267Z,76.30
2023-02-11T01:18:36.408Z,83.10
2023-02-11T01:21:04.887Z,85.30
2023-02-11T01:23:33.481Z,73.50
2023-02-11T01:26:01.647Z,75.20
2023-02-11T01:28:31.091Z,78.00
2023-02-11T01:31:02.465Z,77.60
2023-02-11T01:33:30.787Z,71.90
2023-02-11T01:36:04.862Z,59.20
2023-02-11T01:38:34.487Z,72.80
2023-02-11T01:41:06.805Z,66.50
2023-02-11T01:43:38.203Z,71.10
2023-02-11T01:46:32.846Z,68.60
2023-02-11T01:49:18.658Z,64.40
2023-02-11T01:51:55.349Z,73.00
2023-02-11T01:54:29.386Z,74.60
2023-02-11T01:57:00.272Z,73.90
2023-02-11T01:59:33.565Z,72.40
2023-02-11T02:02:08.454Z,63.50
2023-02-11T02:04:44.229Z,51.10
2023-02-11T02:07:22.642Z,65.20
2023-02-11T02:09:58.287Z,78.30
2023-02-11T02:12:26.455Z,91.70
2023-02-11T02:15:31.786Z,210.90
2023-02-11T02:18:18.345Z,236.10
2023-02-11T02:21:01.522Z,198.60
2023-02-11T02:23:48.573Z,129.70
2023-02-11T02:26:55.369Z,126.50
2023-02-11T02:29:41.479Z,98.40
2023-02-11T02:32:12.285Z,65.60
2023-02-11T02:35:03.883Z,60.30
2023-02-11T02:37:36.347Z,225.90
2023-02-11T02:40:11.746Z,70.80
2023-02-11T02:42:41.825Z,69.90
2023-02-11T02:45:12.058Z,100.70
2023-02-11T02:47:40.091Z,65.60
2023-02-11T02:50:09.289Z,71.50
2023-02-11T02:53:12.712Z,68.20
2023-02-11T02:56:18.773Z,79.90
2023-02-11T02:59:03.073Z,74.50
2023-02-11T03:01:50.439Z,60.80
2023-02-11T03:04:34.139Z,69.00
2023-02-11T03:10:19.468Z,86.60
2023-02-11T03:12:48.865Z,63.70
2023-02-11T03:15:18.407Z,63.00
2023-02-11T03:17:49.648Z,51.20
2023-02-11T03:20:20.559Z,60.80
2023-02-11T03:23:19.270Z,58.20
2023-02-11T03:26:00.417Z,66.90
2023-02-11T03:28:31.467Z,57.50
2023-02-11T03:31:17.964Z,64.50
2023-02-11T03:34:27.768Z,60.70
2023-02-11T03:37:33.503Z,59.50
2023-02-11T03:40:10.138Z,63.40
2023-02-11T03:42:46.028Z,68.40
2023-02-11T03:45:18.567Z,58.40
2023-02-11T03:47:52.082Z,65.30
2023-02-11T03:50:21.694Z,62.40
2023-02-11T03:52:50.136Z,57.90
2023-02-11T03:55:21.067Z,60.90
2023-02-11T03:57:49.403Z,58.50
2023-02-11T04:00:17.369Z,58.00
2023-02-11T04:02:45.550Z,64.70
2023-02-11T04:05:16.319Z,58.90
2023-02-11T04:07:44.228Z,60.80
2023-02-11T04:10:12.522Z,54.80
2023-02-11T04:12:41.010Z,58.40
2023-02-11T04:15:09.880Z,58.20
2023-02-11T04:17:38.315Z,59.00
2023-02-11T04:20:06.761Z,63.60
2023-02-11T04:22:34.758Z,59.30
2023-02-11T04:25:03.497Z,60.00
2023-02-11T04:27:32.095Z,58.40
2023-02-11T04:30:00.012Z,59.20
2023-02-11T04:32:28.318Z,60.90
2023-02-11T04:34:56.282Z,59.30
2023-02-11T04:37:24.151Z,56.50
2023-02-11T04:39:52.059Z,56.40
2023-02-11T04:42:20.120Z,57.10
2023-02-11T04:44:48.023Z,56.30
2023-02-11T04:47:16.046Z,54.80
2023-02-11T04:49:44.068Z,55.70
2023-02-11T04:52:12.010Z,60.00
2023-02-11T04:54:40.312Z,63.70
2023-02-11T04:57:08.579Z,55.20
2023-02-11T04:59:36.528Z,54.60
2023-02-11T05:02:04.521Z,49.80
2023-02-11T05:04:32.631Z,55.10
2023-02-11T05:07:00.532Z,55.80
2023-02-11T05:09:28.429Z,50.90
2023-02-11T05:11:56.383Z,47.20
2023-02-11T05:14:24.349Z,53.50
2023-02-11T05:16:52.420Z,55.70
2023-02-11T05:19:20.322Z,50.80
2023-02-11T05:22:01.739Z,47.30
2023-02-11T05:24:33.082Z,53.70
2023-02-11T05:27:02.047Z,51.60
2023-02-11T05:29:29.939Z,46.80
2023-02-11T05:31:59.150Z,59.80
2023-02-11T05:34:27.330Z,53.60
2023-02-11T05:36:55.432Z,52.90
2023-02-11T05:39:23.364Z,50.10
2023-02-11T05:41:51.223Z,49.80
2023-02-11T05:44:19.367Z,50.40
2023-02-11T05:46:47.332Z,53.10
2023-02-11T05:49:17.160Z,50.90
2023-02-11T05:51:45.192Z,47.30
2023-02-11T05:54:13.290Z,51.70
2023-02-11T05:56:43.154Z,60.30
2023-02-11T05:59:14.656Z,55.40
2023-02-11T06:01:42.858Z,56.20
2023-02-11T06:04:10.775Z,51.20
2023-02-11T06:06:38.736Z,50.80
2023-02-11T06:09:06.576Z,44.70
2023-02-11T06:11:34.450Z,49.30
2023-02-11T06:14:02.380Z,54.30
2023-02-11T06:16:30.405Z,55.00
2023-02-11T06:18:58.292Z,58.40
2023-02-11T06:21:36.366Z,41.80
2023-02-11T06:24:10.659Z,55.60
2023-02-11T06:26:38.646Z,47.30
2023-02-11T06:29:06.723Z,49.20
2023-02-11T06:31:34.732Z,48.60
2023-02-11T06:34:02.743Z,51.70
2023-02-11T06:36:31.099Z,54.40
2023-02-11T06:38:59.171Z,49.50
2023-02-11T06:41:27.176Z,49.10
2023-02-11T06:43:55.101Z,55.70
2023-02-11T06:46:23.078Z,53.30
2023-02-11T06:48:51.161Z,47.50
2023-02-11T06:51:18.999Z,50.00
2023-02-11T06:53:47.786Z,51.00
2023-02-11T06:56:21.789Z,51.20
2023-02-11T06:58:54.266Z,51.60
2023-02-11T07:01:24.552Z,43.90
2023-02-11T07:03:53.188Z,53.30
2023-02-11T07:06:24.264Z,44.50
2023-02-11T07:08:52.222Z,47.90
2023-02-11T07:11:26.319Z,44.00
2023-02-11T07:13:56.304Z,42.30
2023-02-11T07:16:24.474Z,45.90
2023-02-11T07:18:52.628Z,49.20
2023-02-11T07:21:22.400Z,47.70
2023-02-11T07:23:50.835Z,48.60
2023-02-11T07:26:21.635Z,47.30
2023-02-11T07:28:50.651Z,43.40
2023-02-11T07:31:27.438Z,45.50
2023-02-11T07:33:58.049Z,46.70
2023-02-11T07:36:27.520Z,44.10
2023-02-11T07:38:55.509Z,46.30
2023-02-11T07:41:25.057Z,43.90
2023-02-11T07:43:53.901Z,49.40
2023-02-11T07:46:27.275Z,47.60
2023-02-11T07:51:26.744Z,41.40
2023-02-11T07:53:57.302Z,45.60
2023-02-11T07:56:25.781Z,75.20
2023-02-11T07:58:54.913Z,41.80
2023-02-11T08:01:25.584Z,61.60
2023-02-11T08:03:54.296Z,37.60
2023-02-11T08:06:24.348Z,73.20
2023-02-11T08:08:52.274Z,45.70
2023-02-11T08:11:23.455Z,48.80
2023-02-11T08:13:52.678Z,45.90
2023-02-11T08:16:32.518Z,45.20
2023-02-11T08:19:04.116Z,43.60
2023-02-11T08:21:32.327Z,70.10
2023-02-11T08:24:02.519Z,42.70
2023-02-11T08:26:32.073Z,44.50
2023-02-11T08:29:00.140Z,44.30
2023-02-11T08:31:32.856Z,44.40
2023-02-11T08:34:01.085Z,42.70
2023-02-11T08:36:31.783Z,38.30
2023-02-11T08:39:17.581Z,40.40
2023-02-11T08:41:49.202Z,39.50
2023-02-11T08:44:19.392Z,33.40
2023-02-11T08:46:48.006Z,39.50
2023-02-11T08:49:16.406Z,39.60
2023-02-11T08:51:44.872Z,39.20
2023-02-11T08:54:13.166Z,35.40
2023-02-11T08:56:41.193Z,39.10
2023-02-11T08:59:12.512Z,34.20
2023-02-11T09:01:41.018Z,37.20
2023-02-11T09:04:10.287Z,42.00
2023-02-11T09:06:38.836Z,38.50
2023-02-11T09:09:06.861Z,39.50
2023-02-11T09:11:35.979Z,35.60
2023-02-11T09:14:07.487Z,37.90
2023-02-11T09:16:37.547Z,38.90
2023-02-11T09:19:06.030Z,40.20
2023-02-11T09:21:33.932Z,42.40
2023-02-11T09:24:01.891Z,40.30
2023-02-11T09:26:32.939Z,44.60
2023-02-11T09:29:01.480Z,36.20
2023-02-11T09:31:33.812Z,36.00
2023-02-11T09:34:05.407Z,44.70
2023-02-11T09:36:39.056Z,43.30
2023-02-11T09:39:12.238Z,41.60
2023-02-11T09:42:07.600Z,41.90
2023-02-11T09:44:37.395Z,39.80
2023-02-11T09:47:19.918Z,43.10
2023-02-11T09:49:51.758Z,38.40
2023-02-11T09:52:57.635Z,39.10
2023-02-11T09:55:38.695Z,44.00
2023-02-11T09:58:39.019Z,39.30
2023-02-11T10:01:44.487Z,41.40
2023-02-11T10:04:24.464Z,37.90
2023-02-11T10:06:56.957Z,38.00
2023-02-11T10:09:57.195Z,40.00
2023-02-11T10:12:25.532Z,60.40
2023-02-11T10:15:12.047Z,42.10
2023-02-11T10:18:03.754Z,41.30
2023-02-11T10:20:44.361Z,36.70
2023-02-11T10:23:25.712Z,42.70
2023-02-11T10:25:56.100Z,36.20
2023-02-11T10:28:31.840Z,38.40
2023-02-11T10:31:03.836Z,39.50
2023-02-11T10:33:37.857Z,42.20
2023-02-11T10:36:06.241Z,37.00
2023-02-11T10:38:34.464Z,41.00
2023-02-11T10:41:02.474Z,38.70
2023-02-11T10:43:32.661Z,41.50
2023-02-11T10:46:04.888Z,36.80
2023-02-11T10:48:37.748Z,40.40
2023-02-11T10:51:24.496Z,39.50
2023-02-11T10:54:18.683Z,36.80
2023-02-11T10:56:49.803Z,35.60
2023-02-11T10:59:23.861Z,38.10
2023-02-11T11:01:56.693Z,36.60
2023-02-11T11:04:30.929Z,31.70
2023-02-11T11:07:24.943Z,36.30
2023-02-11T11:09:58.012Z,38.70
2023-02-11T11:12:28.439Z,35.80
2023-02-11T11:15:04.033Z,37.60
2023-02-11T11:17:32.050Z,40.80
2023-02-11T11:20:24.589Z,37.80
2023-02-11T11:23:09.104Z,39.00
2023-02-11T11:25:41.282Z,39.20
2023-02-11T11:28:21.000Z,38.90
2023-02-11T11:30:52.885Z,39.10
2023-02-11T11:33:34.700Z,28.60
2023-02-11T11:36:10.526Z,40.60
2023-02-11T11:38:45.816Z,42.20
2023-02-11T11:41:24.940Z,42.30
2023-02-11T11:43:59.069Z,41.70
2023-02-11T11:46:41.140Z,49.70
2023-02-11T11:49:14.868Z,36.50
2023-02-11T11:51:51.403Z,41.90
2023-02-11T11:54:20.562Z,42.50
2023-02-11T11:57:00.859Z,45.10
2023-02-11T11:59:29.371Z,40.20
2023-02-11T12:02:34.898Z,58.70
2023-02-11T12:05:41.915Z,44.30
2023-02-11T12:08:22.409Z,47.90
2023-02-11T12:11:02.849Z,44.90
2023-02-11T12:13:57.882Z,57.00
2023-02-11T12:16:33.658Z,48.90
2023-02-11T12:19:04.619Z,47.40
2023-02-11T12:21:38.921Z,43.10
2023-02-11T12:24:18.915Z,47.60
2023-02-11T12:26:54.419Z,44.60
2023-02-11T12:29:55.541Z,42.80
2023-02-11T12:32:32.382Z,42.10
2023-02-11T12:35:22.416Z,46.70
2023-02-11T12:38:12.264Z,46.00
2023-02-11T12:40:53.425Z,45.90
2023-02-11T12:43:45.143Z,73.30
2023-02-11T12:46:43.060Z,42.90
2023-02-11T12:49:34.754Z,40.70
2023-02-11T12:52:17.343Z,42.80
2023-02-11T12:55:19.286Z,59.70
2023-02-11T12:57:52.636Z,42.50
2023-02-11T13:00:31.495Z,44.10
2023-02-11T13:03:11.409Z,48.60
2023-02-11T13:05:39.480Z,41.70
2023-02-11T13:08:31.024Z,46.50
2023-02-11T13:11:03.309Z,45.90
2023-02-11T13:13:47.318Z,43.90
2023-02-11T13:16:33.977Z,43.40
2023-02-11T13:19:38.220Z,42.70
2023-02-11T13:22:31.857Z,46.60
2023-02-11T13:25:07.406Z,178.70
2023-02-11T13:28:00.287Z,103.40
2023-02-11T13:30:29.167Z,52.20
2023-02-11T13:32:57.161Z,45.50
2023-02-11T13:35:49.662Z,40.00
2023-02-11T13:38:30.525Z,54.50
2023-02-11T13:41:03.385Z,46.50
2023-02-11T13:43:34.423Z,46.60
2023-02-11T13:46:09.033Z,97.20
2023-02-11T13:48:45.566Z,54.10
2023-02-11T13:51:17.167Z,46.60
2023-02-11T13:53:50.369Z,89.70
2023-02-11T13:56:33.949Z,54.90
2023-02-11T13:59:25.432Z,55.70
2023-02-11T14:01:54.330Z,46.70
2023-02-11T14:04:26.054Z,51.00
2023-02-11T14:07:31.599Z,56.90
2023-02-11T14:09:59.739Z,135.00
2023-02-11T14:12:34.107Z,56.30
2023-02-11T14:15:07.713Z,57.40
2023-02-11T14:20:35.840Z,56.50
2023-02-11T14:23:04.569Z,66.80
2023-02-11T14:25:32.674Z,54.90
2023-02-11T14:28:18.678Z,58.50
2023-02-11T14:30:46.921Z,72.60
2023-02-11T14:33:41.329Z,92.30
2023-02-11T14:36:23.898Z,58.90
2023-02-11T14:39:10.753Z,67.30
2023-02-11T14:41:44.395Z,55.60
2023-02-11T14:44:23.515Z,66.90
2023-02-11T14:46:54.053Z,83.70
2023-02-11T14:49:27.684Z,78.40
2023-02-11T14:54:28.880Z,61.30
2023-02-11T14:57:18.397Z,71.30
2023-02-11T15:00:20.426Z,63.70
2023-02-11T15:02:49.080Z,70.70
2023-02-11T15:05:24.778Z,67.40
2023-02-11T15:08:02.478Z,55.40
2023-02-11T15:10:41.039Z,86.60
2023-02-11T15:13:15.215Z,79.40
2023-02-11T15:15:44.651Z,79.60
2023-02-11T15:18:22.490Z,73.50
2023-02-11T15:20:51.475Z,74.80
2023-02-11T15:23:25.304Z,71.90
2023-02-11T15:25:53.334Z,75.80
2023-02-11T15:28:27.897Z,77.40
2023-02-11T15:31:15.538Z,69.30
2023-02-11T15:33:43.932Z,74.30
2023-02-11T15:36:14.479Z,79.60
2023-02-11T15:38:43.069Z,82.80
2023-02-11T15:41:37.167Z,75.80
2023-02-11T15:44:05.529Z,75.90
2023-02-11T15:46:43.239Z,68.40
2023-02-11T15:49:16.545Z,81.70
2023-02-11T15:51:46.454Z,77.60
2023-02-11T15:54:21.261Z,107.30
2023-02-11T15:56:53.780Z,77.90
2023-02-11T15:59:32.965Z,90.30
2023-02-11T16:02:09.270Z,77.20
2023-02-11T16:04:38.158Z,93.00
2023-02-11T16:07:06.421Z,88.00
2023-02-11T16:09:36.277Z,102.90
2023-02-11T16:12:26.423Z,87.70
2023-02-11T16:14:54.665Z,97.60
2023-02-11T16:17:28.167Z,100.10
2023-02-11T16:19:56.757Z,89.70
2023-02-11T16:22:28.909Z,93.50
2023-02-11T16:25:00.350Z,99.10
2023-02-11T16:27:37.024Z,99.50
2023-02-11T16:30:06.542Z,93.40
2023-02-11T16:32:34.649Z,89.00
2023-02-11T16:35:11.389Z,106.20
2023-02-11T16:37:39.686Z,102.30
2023-02-11T16:40:09.142Z,99.30
2023-02-11T16:42:37.539Z,102.70
2023-02-11T16:45:09.045Z,100.90
2023-02-11T16:47:37.598Z,97.90
2023-02-11T16:50:08.772Z,104.60
2023-02-11T16:52:37.936Z,93.00
2023-02-11T16:55:06.238Z,93.60
2023-02-11T16:57:35.256Z,97.50
2023-02-11T17:00:04.904Z,94.60
2023-02-11T17:02:39.415Z,108.90
2023-02-11T17:05:18.533Z,100.00
2023-02-11T17:07:48.481Z,98.20
2023-02-11T17:10:26.924Z,111.60
2023-02-11T17:12:57.039Z,102.00
2023-02-11T17:15:26.659Z,102.90
2023-02-11T17:17:56.048Z,109.30
2023-02-11T17:20:28.724Z,118.50
2023-02-11T17:22:58.688Z,128.60
2023-02-11T17:25:30.005Z,108.90
2023-02-11T17:28:02.648Z,103.40
2023-02-11T17:30:35.969Z,106.40
2023-02-11T17:33:04.778Z,105.20
2023-02-11T17:35:32.827Z,98.30
2023-02-11T17:38:01.071Z,109.20
2023-02-11T17:40:29.682Z,104.50
2023-02-11T17:43:27.848Z,103.30
2023-02-11T17:45:55.949Z,108.80
2023-02-11T17:48:24.834Z,104.40
2023-02-11T17:50:52.700Z,116.10
2023-02-11T17:53:20.666Z,127.90
2023-02-11T17:55:49.093Z,120.90
2023-02-11T17:58:17.281Z,113.10
2023-02-11T18:00:46.268Z,136.90
2023-02-11T18:03:14.469Z,155.60
2023-02-11T18:05:42.636Z,140.00
2023-02-11T18:08:10.890Z,115.80
2023-02-11T18:10:41.947Z,125.40
2023-02-11T18:13:10.031Z,104.60
2023-02-11T18:15:37.996Z,117.00
2023-02-11T18:18:06.169Z,106.70
2023-02-11T18:20:34.108Z,117.10
2023-02-11T18:23:02.165Z,107.00
2023-02-11T18:25:30.192Z,114.20
2023-02-11T18:27:58.271Z,115.80
2023-02-11T18:30:28.694Z,113.00
2023-02-11T18:32:56.871Z,97.30
2023-02-11T18:35:25.166Z,103.70
2023-02-11T18:37:53.687Z,95.80
2023-02-11T18:40:22.068Z,93.90
2023-02-11T18:42:50.589Z,87.10
2023-02-11T18:45:19.153Z,86.10
2023-02-11T18:47:48.753Z,87.40
2023-02-11T18:50:18.981Z,73.80
2023-02-11T18:52:48.126Z,91.70
2023-02-11T18:55:16.581Z,77.40
2023-02-11T18:57:44.877Z,87.00
2023-02-11T19:00:14.007Z,87.60
2023-02-11T19:02:42.172Z,72.70
2023-02-11T19:05:10.792Z,85.40
2023-02-11T19:07:38.917Z,84.20
2023-02-11T19:10:08.337Z,80.80
2023-02-11T19:12:36.374Z,73.20
2023-02-11T19:15:06.833Z,83.70
2023-02-11T19:17:35.518Z,84.00
2023-02-11T19:20:04.229Z,85.30
2023-02-11T19:22:32.560Z,75.20
2023-02-11T19:25:01.119Z,81.80
2023-02-11T19:27:29.469Z,76.40
2023-02-11T19:29:58.271Z,78.50
2023-02-11T19:32:28.214Z,80.00
2023-02-11T19:34:56.995Z,83.00
2023-02-11T19:37:25.482Z,77.30
2023-02-11T19:39:53.665Z,81.50
2023-02-11T19:42:21.971Z,78.60
2023-02-11T19:44:50.428Z,69.30
2023-02-11T19:50:41.434Z,72.50
2023-02-11T19:53:24.781Z,67.80
2023-02-11T19:55:54.025Z,58.40
2023-02-11T19:58:22.410Z,62.30
2023-02-11T20:00:50.709Z,60.80
2023-02-11T20:03:20.129Z,55.60
2023-02-11T20:05:48.764Z,57.60
2023-02-11T20:08:17.110Z,58.20
2023-02-11T20:10:45.877Z,56.80
2023-02-11T20:13:14.726Z,58.60
2023-02-11T20:15:42.791Z,59.10
2023-02-11T20:18:11.083Z,58.60
2023-02-11T20:20:39.461Z,72.10
2023-02-11T20:23:07.608Z,54.30
2023-02-11T20:25:40.674Z,48.70
2023-02-11T20:28:09.251Z,87.70
2023-02-11T20:30:37.780Z,56.50
2023-02-11T20:33:05.799Z,61.00
2023-02-11T20:35:34.043Z,66.30
2023-02-11T20:38:02.436Z,54.40
2023-02-11T20:40:30.904Z,49.10
2023-02-11T20:43:01.430Z,45.60
2023-02-11T20:45:29.437Z,54.10
2023-02-11T20:47:57.619Z,78.50
2023-02-11T20:50:25.819Z,106.70
2023-02-11T20:52:54.309Z,52.90
2023-02-11T20:55:22.433Z,47.10
2023-02-11T20:57:53.273Z,39.00
2023-02-11T21:00:21.489Z,45.10
2023-02-11T21:02:57.143Z,49.20
2023-02-11T21:05:25.761Z,40.70
2023-02-11T21:07:58.002Z,37.40
2023-02-11T21:10:26.268Z,38.40
2023-02-11T21:12:54.541Z,34.80
2023-02-11T21:15:23.615Z,33.40
2023-02-11T21:17:53.344Z,27.80
2023-02-11T21:20:21.704Z,31.90
2023-02-11T21:22:50.473Z,73.50
2023-02-11T21:25:18.628Z,33.80
2023-02-11T21:27:46.935Z,33.80
2023-02-11T21:30:15.209Z,33.20
2023-02-11T21:32:43.459Z,44.50
2023-02-11T21:35:11.750Z,37.20
2023-02-11T21:37:39.950Z,60.60
2023-02-11T21:40:08.971Z,61.70
2023-02-11T21:42:37.393Z,37.80
2023-02-11T21:45:06.613Z,43.90
2023-02-11T21:47:34.704Z,35.40
2023-02-11T21:50:05.804Z,29.30
2023-02-11T21:52:33.846Z,35.10
2023-02-11T21:55:02.053Z,33.20
2023-02-11T21:57:30.322Z,32.30
2023-02-11T21:59:58.276Z,35.40
2023-02-11T22:02:26.735Z,36.20
2023-02-11T22:08:08.342Z,46.70
2023-02-11T22:10:36.297Z,33.80
2023-02-11T22:13:04.300Z,37.00
2023-02-11T22:15:32.303Z,35.20
2023-02-11T22:18:00.262Z,32.90
2023-02-11T22:20:28.222Z,37.70
2023-02-11T22:22:56.140Z,116.00
2023-02-11T22:25:24.013Z,37.60
2023-02-11T22:27:51.911Z,35.00
2023-02-11T22:30:20.001Z,36.20
2023-02-11T22:32:48.529Z,33.30
2023-02-11T22:35:16.427Z,33.30
2023-02-11T22:37:44.357Z,40.10
2023-02-11T22:40:12.977Z,56.10
2023-02-11T22:42:40.896Z,42.30
2023-02-11T22:45:09.812Z,34.20
2023-02-11T22:47:37.753Z,26.60
2023-02-11T22:50:06.563Z,26.90
2023-02-11T22:52:37.454Z,44.60
2023-02-11T22:55:05.863Z,26.00
2023-02-11T22:57:33.814Z,28.30
2023-02-11T23:00:01.811Z,25.90
2023-02-11T23:02:31.585Z,26.90
2023-02-11T23:04:59.510Z,26.20
2023-02-11T23:07:27.578Z,29.10
2023-02-11T23:09:55.524Z,31.10
2023-02-11T23:12:23.394Z,29.00
2023-02-11T23:14:51.384Z,21.60
2023-02-11T23:17:19.496Z,20.50
2023-02-11T23:19:47.438Z,17.60
2023-02-11T23:22:15.391Z,21.80
2023-02-11T23:24:43.279Z,20.30
2023-02-11T23:27:11.192Z,17.90
2023-02-11T23:29:39.402Z,32.40
2023-02-11T23:32:07.511Z,21.50
2023-02-11T23:34:35.371Z,20.90
2023-02-11T23:37:03.356Z,18.40
2023-02-11T23:39:31.545Z,22.00
2023-02-11T23:41:59.433Z,18.80
2023-02-11T23:44:27.970Z,19.70
2023-02-11T23:46:55.935Z,18.40
2023-02-11T23:49:23.787Z,23.10
2023-02-11T23:51:51.690Z,18.00
2023-02-11T23:54:19.826Z,17.30
2023-02-11T23:56:47.762Z,17.80
2023-02-11T23:59:15.693Z,20.30
